FW8496 Weather Reports


time (UTC)temp
F
wind
direction
speed
knots
gust
knots
rain 1hr
in
rain 24hr
in
rain mn
in
humidity
%
barometer
mb
20210518200151 50 200 5.2 13.0 0.00 0.08 0.00 69 1014.3
20210518194614 50 198 8.7 13.9 0.00 0.08 0.00 70 1014.4
20210518193152 49 222 7.0 13.9 0.00 0.08 0.00 71 1014.5
20210518191624 50 210 6.1 17.4 0.00 0.08 0.00 71 1014.6
20210518190207 50 175 7.0 13.9 0.00 0.08 0.00 73 1014.8
20210518184654 47 244 6.1 13.0 0.00 0.08 0.00 76 1015.0
20210518183113 47 277 7.8 14.8 0.00 0.08 0.00 78 1015.1
20210518181644 47 235 6.1 11.3 0.00 0.08 0.00 79 1015.3
20210518180136 49 248 9.6 20.9 0.00 0.08 0.00 66 1015.0
20210518174628 52 229 5.2 13.9 0.00 0.08 0.00 53 1014.6
20210518173043 53 252 5.2 10.4 0.00 0.08 0.00 51 1014.5
20210518171625 52 223 7.0 15.6 0.00 0.08 0.00 50 1014.4
20210518170141 53 281 5.2 12.2 0.00 0.08 0.00 50 1014.6
20210518164632 53 160 6.1 12.2 0.00 0.08 0.00 51 1014.6
20210518163108 53 191 5.2 10.4 0.00 0.08 0.00 51 1014.4
20210518161559 53 130 4.3 9.6 0.00 0.08 0.00 54 1014.3
20210518160135 52 157 4.3 11.3 0.00 0.08 0.00 57 1014.6
20210518154630 51 164 4.3 10.4 0.00 0.08 0.00 62 1014.7
20210518153125 50 194 3.5 7.0 0.00 0.08 0.00 62 1014.8
20210518151644 50 0 0.9 8.7 0.00 0.08 0.00 65 1014.9
20210518150122 50 136 1.7 6.1 0.00 0.08 0.00 67 1014.8
20210518144631 48 176 0.0 2.6 0.00 0.08 0.00 71 1014.8
20210518143151 47 0 0.0 1.7 0.00 0.08 0.00 72 1014.9
20210518141606 47 321 1.7 4.3 0.00 0.08 0.00 72 1014.8
20210518140143 47 205 0.9 2.6 0.00 0.08 0.00 72 1014.7
20210518134712 46 175 0.9 3.5 0.00 0.08 0.00 75 1014.6
20210518133054 45 262 0.9 2.6 0.00 0.08 0.00 78 1014.6
20210518131649 44 298 0.9 3.5 0.00 0.08 0.00 83 1014.5
20210518130111 43 298 1.7 9.6 0.00 0.08 0.00 83 1014.2
20210518124719 43 267 1.7 6.1 0.00 0.08 0.00 82 1014.2
20210518123114 43 296 2.6 6.1 0.00 0.08 0.00 81 1013.9
20210518121633 43 285 2.6 11.3 0.00 0.08 0.00 84 1013.8
20210518120054 43 176 2.6 6.1 0.00 0.08 0.00 84 1013.7
20210518114637 42 125 1.7 6.1 0.00 0.08 0.00 85 1013.6
20210518113133 43 172 3.5 7.8 0.00 0.08 0.00 85 1014.1
20210518111712 43 103 0.0 6.1 0.00 0.08 0.00 85 1013.9
20210518110113 43 87 3.5 7.0 0.00 0.08 0.00 83 1014.0
20210518104642 44 344 1.7 8.7 0.00 0.08 0.00 82 1014.3
20210518103123 44 316 6.1 10.4 0.00 0.08 0.00 81 1013.9
20210518101658 45 9 5.2 14.8 0.00 0.08 0.00 77 1013.7
20210518100155 46 65 4.3 7.8 0.00 0.08 0.00 68 1013.6
20210518094559 44 53 5.2 8.7 0.00 0.08 0.00 81 1013.6
20210518093138 43 15 5.2 10.4 0.00 0.08 0.00 84 1013.7
20210518091629 42 16 5.2 8.7 0.00 0.08 0.00 86 1013.9
20210518090136 42 38 4.3 8.7 0.00 0.08 0.00 86 1014.0
20210518084743 42 13 6.1 9.6 0.00 0.08 0.00 87 1014.2
20210518083059 42 352 5.2 8.7 0.00 0.08 0.00 87 1014.2
20210518081556 42 15 4.3 7.8 0.00 0.08 0.00 88 1014.3
20210518080119 42 16 5.2 8.7 0.00 0.08 0.00 88 1014.6
20210518074638 41 46 5.2 8.7 0.00 0.08 0.00 89 1014.6
20210518073129 41 9 4.3 8.7 0.00 0.08 0.00 90 1015.1
20210518071616 41 31 3.5 9.6 0.00 0.08 0.00 91 1015.3
20210518070120 41 38 4.3 9.6 0.00 0.08 0.00 91 1015.5
20210518064557 41 360 3.5 8.7 0.00 0.08 0.00 90 1015.5
20210518063234 41 26 4.3 8.7 0.00 0.08 0.00 89 1015.6
20210518061621 41 5 5.2 10.4 0.00 0.08 0.00 89 1015.7
20210518060204 42 349 5.2 11.3 0.00 0.08 0.00 89 1015.6
20210518054641 42 44 5.2 9.6 0.00 0.08 0.08 89 1015.7
20210518053130 42 352 6.1 12.2 0.00 0.08 0.08 89 1015.8
20210518051639 42 332 6.1 10.4 0.00 0.08 0.08 88 1015.8
20210518050112 42 5 5.2 10.4 0.00 0.08 0.08 87 1015.9
20210518044644 42 48 7.0 12.2 0.00 0.08 0.08 88 1015.5
20210518043129 42 19 6.1 14.8 0.00 0.08 0.08 88 1015.3
20210518041730 42 34 9.6 18.2 0.00 0.08 0.08 87 1014.9
20210518040145 43 5 9.6 20.0 0.00 0.08 0.08 86 1014.6
20210518034559 43 331 9.6 18.2 0.00 0.08 0.08 87 1015.0
20210518033151 43 340 8.7 14.8 0.00 0.08 0.08 88 1015.1
20210518031644 43 352 7.0 13.9 0.01 0.08 0.08 87 1014.9
20210518030107 43 352 8.7 15.6 0.01 0.08 0.08 87 1014.8
20210518024645 43 313 8.7 13.0 0.01 0.08 0.08 86 1015.4
20210518023118 43 5 7.8 11.3 0.01 0.08 0.08 85 1015.2
20210518021703 43 360 7.8 13.0 0.00 0.07 0.07 86 1015.2
20210518020116 43 337 7.0 15.6 0.00 0.07 0.07 85 1015.1
20210518014603 43 24 8.7 17.4 0.00 0.07 0.07 84 1014.6
20210518013145 44 360 7.0 12.2 0.00 0.07 0.07 83 1014.4
20210518011606 44 345 7.8 13.9 0.00 0.07 0.07 82 1014.2
20210518010213 45 329 7.0 12.2 0.00 0.07 0.07 82 1014.2
20210518004642 45 329 7.0 11.3 0.00 0.07 0.07 80 1014.8
20210518003156 46 342 6.1 10.4 0.00 0.07 0.07 78 1015.1
20210518001621 46 350 6.1 13.0 0.00 0.07 0.07 78 1015.0
20210518000121 46 341 7.8 13.0 0.00 0.07 0.07 81 1014.4
20210517234641 46 13 7.8 14.8 0.00 0.07 0.07 78 1014.6
20210517233126 47 319 7.0 13.9 0.00 0.07 0.07 74 1014.8
20210517231651 47 84 7.8 14.8 0.00 0.07 0.07 72 1014.2
20210517230114 46 17 7.0 15.6 0.00 0.07 0.07 75 1014.4
20210517224615 46 56 9.6 19.1 0.00 0.07 0.07 77 1014.6
20210517223211 45 63 10.4 18.2 0.00 0.07 0.07 79 1015.0
20210517221958 45 40 8.7 15.6 0.00 0.07 0.07 83 1015.7
20210517220117 45 340 11.3 20.9 0.01 0.07 0.07 84 1016.0
20210517214608 45 316 7.0 15.6 0.03 0.07 0.07 81 1016.4
20210517213135 46 77 9.6 15.6 0.04 0.07 0.07 83 1016.2
20210517211621 46 81 9.6 13.9 0.06 0.07 0.07 81 1016.0
20210517210156 47 97 1.7 3.5 0.06 0.06 0.06 81 1016.6
20210517204559 48 61 1.7 12.2 0.03 0.03 0.03 74 1016.4
20210517203217 49 296 7.8 14.8 0.02 0.02 0.02 71 1015.5
20210517201557 50 325 4.3 11.3 0.01 0.01 0.01 67 1015.4